Time;durP1;ratioP1;P1;durP2;ratioP2;P2;SDS_P1;SDS_P2;PMS_P1;PMS_P2;Temp;Humidity;BMP_temperature;BMP_pressure;BME280_temperature;BME280_humidity;BME280_pressure;Samples;Min_cycle;Max_cycle;Signal;HPM_P1;HPM_P2
2021/12/21 00:00:38;;;;;;;7.87;4.90;;;2.80;99.90;;;;;;5034924;28;20161;-69
2021/12/21 00:03:04;;;;;;;7.83;4.43;;;2.80;99.90;;;;;;5034868;28;20189;-69
2021/12/21 00:05:30;;;;;;;12.23;4.17;;;2.90;99.90;;;;;;5034194;28;20189;-68
2021/12/21 00:08:00;;;;;;;10.10;4.43;;;2.90;99.90;;;;;;5034739;28;20166;-69
2021/12/21 00:10:32;;;;;;;10.37;5.20;;;2.90;99.90;;;;;;5035107;28;20197;-68
2021/12/21 00:16:15;;;;;;;12.70;5.23;;;2.80;99.90;;;;;;5042623;28;20667;-68
2021/12/21 00:26:11;;;;;;;17.50;5.80;;;2.80;99.90;;;;;;5035225;28;20172;-68
2021/12/21 00:28:47;;;;;;;8.07;5.50;;;2.70;99.90;;;;;;5034390;28;20503;-70
2021/12/21 00:31:12;;;;;;;13.53;5.80;;;2.80;99.90;;;;;;5033983;28;20214;-70
2021/12/21 00:33:40;;;;;;;12.13;5.90;;;2.80;99.90;;;;;;5033755;28;20232;-69
2021/12/21 00:36:08;;;;;;;13.53;4.77;;;2.70;99.90;;;;;;5035639;28;20197;-68
2021/12/21 00:38:34;;;;;;;9.97;5.57;;;2.80;99.90;;;;;;5038281;28;20161;-68
2021/12/21 00:41:00;;;;;;;9.37;5.37;;;2.60;99.90;;;;;;5034117;28;20168;-69
2021/12/21 00:43:26;;;;;;;12.00;5.67;;;2.80;99.90;;;;;;5034068;28;20173;-68
2021/12/21 00:45:52;;;;;;;13.40;5.60;;;2.80;99.90;;;;;;5034032;28;20161;-70
2021/12/21 00:48:17;;;;;;;14.27;5.60;;;2.70;99.90;;;;;;5033949;28;20243;-68
2021/12/21 00:50:44;;;;;;;11.43;6.33;;;2.70;99.90;;;;;;5034446;28;20601;-69
2021/12/21 00:53:12;;;;;;;9.63;5.47;;;2.80;99.90;;;;;;5034129;28;20165;-68
2021/12/21 00:55:38;;;;;;;13.40;6.17;;;2.80;99.90;;;;;;5033710;28;20291;-66
2021/12/21 00:58:04;;;;;;;11.60;5.63;;;2.80;99.90;;;;;;5033794;28;20194;-68
2021/12/21 01:00:29;;;;;;;8.70;5.73;;;2.80;99.90;;;;;;5034189;28;20211;-67
2021/12/21 01:02:58;;;;;;;10.77;6.50;;;2.80;99.90;;;;;;5034049;28;20207;-67
2021/12/21 01:05:31;;;;;;;13.53;6.57;;;2.80;99.90;;;;;;5033641;28;20165;-68
2021/12/21 01:08:00;;;;;;;11.70;6.30;;;2.70;99.90;;;;;;5033596;28;20180;-68
2021/12/21 01:18:17;;;;;;;13.60;6.70;;;2.60;99.90;;;;;;5033710;28;20169;-69
2021/12/21 01:21:02;;;;;;;15.50;7.07;;;2.70;99.90;;;;;;5032795;28;20188;-68
2021/12/21 01:28:52;;;;;;;11.03;6.97;;;2.70;99.90;;;;;;5034336;28;20197;-70
2021/12/21 01:31:33;;;;;;;13.73;6.60;;;2.70;99.90;;;;;;5044767;28;20247;-68
2021/12/21 01:36:41;;;;;;;10.77;6.50;;;2.70;99.90;;;;;;5046245;28;20160;-69
2021/12/21 01:39:17;;;;;;;13.70;7.07;;;2.70;99.90;;;;;;5046180;28;20161;-68
2021/12/21 01:41:54;;;;;;;11.93;6.30;;;2.70;99.90;;;;;;5041794;28;20195;-71
2021/12/21 01:49:52;;;;;;;9.03;6.30;;;2.70;99.90;;;;;;5042172;28;20206;-67
2021/12/21 01:52:23;;;;;;;14.83;6.43;;;2.70;99.90;;;;;;5033735;28;20585;-69
2021/12/21 01:54:50;;;;;;;9.33;6.27;;;2.70;99.90;;;;;;5035763;28;20207;-71
2021/12/21 01:57:16;;;;;;;16.17;6.70;;;2.70;99.90;;;;;;5036734;28;20535;-67
2021/12/21 01:59:43;;;;;;;14.80;6.70;;;2.70;99.90;;;;;;5037442;28;20219;-69
2021/12/21 02:02:11;;;;;;;13.57;7.27;;;2.80;99.90;;;;;;5036460;28;20161;-69
2021/12/21 02:04:39;;;;;;;11.83;6.23;;;2.70;99.90;;;;;;5039796;28;20176;-71
2021/12/21 02:07:05;;;;;;;13.97;6.57;;;2.70;99.90;;;;;;5039802;28;20161;-68
2021/12/21 02:09:37;;;;;;;13.70;6.90;;;2.60;99.90;;;;;;5036774;28;20161;-69
2021/12/21 02:12:05;;;;;;;14.73;7.00;;;2.60;99.90;;;;;;5036734;28;20157;-68
2021/12/21 02:14:31;;;;;;;10.20;6.07;;;2.60;99.90;;;;;;5036063;28;20227;-69
2021/12/21 02:22:49;;;;;;;15.50;6.70;;;2.60;99.90;;;;;;5036505;28;20183;-69
2021/12/21 02:27:58;;;;;;;13.20;7.80;;;2.70;99.90;;;;;;5036048;28;20162;-69
2021/12/21 02:30:26;;;;;;;15.83;7.43;;;2.60;99.90;;;;;;5036684;28;20612;-68
2021/12/21 02:32:52;;;;;;;16.40;6.90;;;2.60;99.90;;;;;;5034752;28;20188;-68
2021/12/21 02:35:19;;;;;;;15.23;8.33;;;2.60;99.90;;;;;;5036176;28;20212;-68
2021/12/21 02:37:45;;;;;;;12.37;7.10;;;2.60;99.90;;;;;;5034993;28;20185;-67
2021/12/21 02:40:12;;;;;;;14.27;7.33;;;2.60;99.90;;;;;;5036231;28;20597;-68
2021/12/21 02:42:37;;;;;;;9.67;6.47;;;2.60;99.90;;;;;;5036852;28;20177;-70
2021/12/21 02:45:05;;;;;;;14.57;6.87;;;2.50;99.90;;;;;;5037498;28;20604;-67
2021/12/21 02:47:31;;;;;;;14.53;7.63;;;2.60;99.90;;;;;;5037406;28;20178;-67
2021/12/21 02:49:58;;;;;;;13.00;7.67;;;2.60;99.90;;;;;;5042409;28;20156;-68
2021/12/21 02:52:24;;;;;;;11.30;6.97;;;2.70;99.90;;;;;;5043163;28;20171;-67
2021/12/21 02:54:49;;;;;;;14.50;7.77;;;2.60;99.90;;;;;;5044906;28;20224;-69
2021/12/21 02:57:15;;;;;;;12.60;7.27;;;2.50;99.90;;;;;;5037092;28;20165;-69
2021/12/21 02:59:41;;;;;;;16.87;7.73;;;2.60;99.90;;;;;;5034268;28;20571;-70
2021/12/21 03:02:06;;;;;;;14.20;8.70;;;2.70;99.90;;;;;;5035521;28;20157;-70
2021/12/21 03:04:32;;;;;;;14.60;8.27;;;2.60;99.90;;;;;;5035007;28;20165;-68
2021/12/21 03:09:41;;;;;;;14.90;8.33;;;2.60;99.90;;;;;;5035753;28;20172;-69
2021/12/21 03:12:28;;;;;;;15.13;7.33;;;2.70;99.90;;;;;;5035296;28;20164;-69
2021/12/21 03:14:54;;;;;;;12.00;7.27;;;2.70;99.90;;;;;;5035397;28;20204;-69
2021/12/21 03:17:20;;;;;;;15.33;8.00;;;2.70;99.90;;;;;;5034882;28;20513;-69
2021/12/21 03:19:46;;;;;;;14.23;7.40;;;2.80;99.90;;;;;;5035137;28;20165;-69
2021/12/21 03:22:14;;;;;;;16.43;7.33;;;2.80;99.90;;;;;;5034977;28;20512;-70
2021/12/21 03:24:43;;;;;;;19.87;8.30;;;2.60;99.90;;;;;;5034664;28;20163;-69
2021/12/21 03:27:10;;;;;;;18.87;7.97;;;2.50;99.90;;;;;;5034644;28;20179;-69
2021/12/21 03:29:36;;;;;;;12.63;7.67;;;2.60;99.90;;;;;;5037356;28;20168;-69
2021/12/21 03:32:02;;;;;;;12.67;7.93;;;2.60;99.90;;;;;;5038091;28;20165;-68
2021/12/21 03:34:28;;;;;;;14.83;8.50;;;2.60;99.90;;;;;;5034159;28;20224;-67
2021/12/21 03:36:55;;;;;;;14.63;7.93;;;2.70;99.90;;;;;;5034411;28;20240;-68
2021/12/21 03:39:22;;;;;;;14.47;7.77;;;2.70;99.90;;;;;;5035234;28;20161;-69
2021/12/21 03:41:54;;;;;;;11.93;7.60;;;2.60;99.90;;;;;;5035023;28;20612;-68
2021/12/21 03:44:20;;;;;;;19.03;8.50;;;2.60;99.90;;;;;;5033942;28;20245;-69
2021/12/21 03:46:50;;;;;;;19.70;8.67;;;2.60;99.90;;;;;;5034325;28;20192;-67
2021/12/21 03:52:12;;;;;;;13.03;7.97;;;2.60;99.90;;;;;;5034218;28;20242;-69
2021/12/21 03:54:39;;;;;;;18.20;9.30;;;2.70;99.90;;;;;;5033750;28;20196;-67
2021/12/21 03:57:04;;;;;;;14.33;8.10;;;2.70;99.90;;;;;;5033771;28;20256;-69
2021/12/21 03:59:31;;;;;;;16.13;8.23;;;2.60;99.90;;;;;;5033655;28;20242;-70
2021/12/21 04:01:57;;;;;;;16.37;8.00;;;2.60;99.90;;;;;;5033953;28;20191;-69
2021/12/21 04:04:24;;;;;;;14.07;8.10;;;2.70;99.90;;;;;;5033554;28;20165;-70
2021/12/21 04:06:50;;;;;;;15.97;8.70;;;2.60;99.90;;;;;;5033494;28;20214;-69
2021/12/21 04:09:16;;;;;;;14.90;8.27;;;2.70;99.90;;;;;;5033408;28;20472;-68
2021/12/21 04:11:42;;;;;;;16.00;7.93;;;2.60;99.90;;;;;;5033479;28;20575;-68
2021/12/21 04:14:08;;;;;;;12.60;8.13;;;2.60;99.90;;;;;;5033626;28;20213;-68
2021/12/21 04:16:34;;;;;;;14.57;8.53;;;2.70;99.90;;;;;;5032538;28;20162;-67
2021/12/21 04:19:00;;;;;;;11.07;8.03;;;2.70;99.90;;;;;;5033440;28;20172;-69
2021/12/21 04:21:26;;;;;;;23.20;8.97;;;2.70;99.90;;;;;;5033309;28;20256;-68
2021/12/21 04:23:52;;;;;;;15.47;8.30;;;2.70;99.90;;;;;;5033663;28;20176;-68
2021/12/21 04:26:18;;;;;;;14.10;8.30;;;2.60;99.90;;;;;;5033264;28;20162;-68
2021/12/21 04:28:45;;;;;;;15.03;8.57;;;2.60;99.90;;;;;;5033831;28;20161;-68
2021/12/21 04:31:11;;;;;;;17.67;8.70;;;2.60;99.90;;;;;;5033231;28;20501;-69
2021/12/21 04:33:38;;;;;;;15.40;8.83;;;2.60;99.90;;;;;;5033173;28;20558;-67
2021/12/21 04:36:06;;;;;;;17.07;7.93;;;2.60;99.90;;;;;;5033913;28;20259;-69
2021/12/21 04:38:38;;;;;;;14.17;8.20;;;2.60;99.90;;;;;;5048702;28;20215;-67
2021/12/21 04:41:12;;;;;;;20.07;9.40;;;2.60;99.90;;;;;;5032956;28;20157;-69
2021/12/21 04:43:38;;;;;;;16.90;8.67;;;2.50;99.90;;;;;;5033280;28;20215;-70
2021/12/21 04:46:04;;;;;;;15.43;8.93;;;2.60;99.90;;;;;;5033196;28;20177;-70
2021/12/21 04:48:30;;;;;;;18.77;9.07;;;2.70;99.90;;;;;;5033533;28;20232;-69
2021/12/21 04:50:56;;;;;;;16.90;8.73;;;2.70;99.90;;;;;;5033061;28;20177;-69
2021/12/21 04:53:23;;;;;;;15.27;8.97;;;2.70;99.90;;;;;;5033166;28;20465;-67
2021/12/21 04:55:49;;;;;;;16.77;9.73;;;2.70;99.90;;;;;;5039582;28;20758;-68
2021/12/21 04:58:15;;;;;;;15.67;8.83;;;2.70;99.90;;;;;;5035619;28;20596;-68
2021/12/21 05:00:41;;;;;;;14.77;9.77;;;2.70;99.90;;;;;;5032638;28;20157;-69
2021/12/21 05:03:07;;;;;;;17.10;9.60;;;2.60;99.90;;;;;;5033101;28;20567;-68
2021/12/21 05:05:33;;;;;;;14.70;9.50;;;2.60;99.90;;;;;;5032586;28;20251;-69
2021/12/21 05:10:47;;;;;;;15.87;9.73;;;2.60;99.90;;;;;;5033291;28;20179;-69
2021/12/21 05:13:15;;;;;;;18.60;9.43;;;2.50;99.90;;;;;;5032752;28;20169;-69
2021/12/21 05:15:41;;;;;;;20.90;9.90;;;2.60;99.90;;;;;;5032890;28;20558;-68
2021/12/21 05:18:06;;;;;;;13.90;8.63;;;2.60;99.90;;;;;;5032748;28;20193;-68
2021/12/21 05:20:33;;;;;;;23.47;9.47;;;2.50;99.90;;;;;;5032918;28;20529;-69
2021/12/21 05:22:58;;;;;;;19.30;9.13;;;2.40;99.90;;;;;;5032519;28;20621;-69
2021/12/21 05:25:24;;;;;;;16.83;8.90;;;2.50;99.90;;;;;;5032620;28;20169;-67
2021/12/21 05:27:49;;;;;;;18.47;9.43;;;2.60;99.90;;;;;;5034430;28;20594;-68
2021/12/21 05:30:16;;;;;;;15.00;8.90;;;2.60;99.90;;;;;;5036340;28;20165;-68
2021/12/21 05:32:41;;;;;;;18.43;8.87;;;2.60;99.90;;;;;;5037452;28;20203;-68
2021/12/21 05:35:08;;;;;;;15.67;9.13;;;2.70;99.90;;;;;;5037318;28;20260;-68
2021/12/21 05:37:35;;;;;;;18.00;9.07;;;2.70;99.90;;;;;;5036801;28;20177;-68
2021/12/21 05:40:10;;;;;;;15.97;9.67;;;2.70;99.90;;;;;;5036148;28;20157;-69
2021/12/21 05:42:36;;;;;;;16.60;8.97;;;2.80;99.90;;;;;;5036654;28;20203;-68
2021/12/21 05:45:03;;;;;;;14.27;9.30;;;2.70;99.90;;;;;;5036237;28;20201;-69
2021/12/21 05:47:29;;;;;;;15.63;9.27;;;2.70;99.90;;;;;;5036240;28;20211;-68
2021/12/21 05:49:54;;;;;;;15.93;9.00;;;2.60;99.90;;;;;;5036559;28;20504;-68
2021/12/21 05:52:20;;;;;;;16.50;8.30;;;2.50;99.90;;;;;;5036453;28;20180;-68
2021/12/21 05:54:46;;;;;;;14.00;8.60;;;2.50;99.90;;;;;;5036351;28;20197;-68
2021/12/21 05:57:12;;;;;;;18.73;9.93;;;2.60;99.90;;;;;;5036416;28;20171;-68
2021/12/21 05:59:37;;;;;;;13.63;9.03;;;2.70;99.90;;;;;;5036902;28;20502;-67
2021/12/21 06:02:04;;;;;;;13.67;8.27;;;2.60;99.90;;;;;;5042244;28;20194;-68
2021/12/21 06:04:29;;;;;;;22.63;11.20;;;2.70;99.90;;;;;;5039527;28;20227;-67
2021/12/21 06:06:55;;;;;;;19.33;10.37;;;2.50;99.90;;;;;;5039178;28;20165;-67
2021/12/21 06:09:21;;;;;;;27.73;11.13;;;2.60;99.90;;;;;;5036940;28;20171;-68
2021/12/21 06:12:03;;;;;;;18.17;9.30;;;2.50;99.90;;;;;;5036150;28;20511;-67
2021/12/21 06:22:46;;;;;;;18.67;9.40;;;2.40;99.90;;;;;;5046702;28;20207;-68
2021/12/21 06:27:47;;;;;;;18.03;8.63;;;2.60;99.90;;;;;;5035514;28;20164;-67
2021/12/21 06:30:14;;;;;;;15.10;9.47;;;2.50;99.90;;;;;;5035715;28;20215;-67
2021/12/21 06:32:40;;;;;;;17.07;9.13;;;2.60;99.90;;;;;;5035448;28;20481;-67
2021/12/21 06:35:07;;;;;;;17.03;9.53;;;2.60;99.90;;;;;;5035910;28;20343;-68
2021/12/21 06:37:33;;;;;;;16.83;9.33;;;2.50;99.90;;;;;;5035417;28;20503;-70
2021/12/21 06:39:58;;;;;;;17.33;9.50;;;2.50;99.90;;;;;;5034206;28;20169;-68
2021/12/21 06:42:25;;;;;;;13.90;8.13;;;2.40;99.90;;;;;;5035010;28;20244;-69
2021/12/21 06:44:55;;;;;;;16.40;9.07;;;2.40;99.90;;;;;;5034583;28;20158;-67
2021/12/21 06:52:50;;;;;;;16.07;9.60;;;2.50;99.90;;;;;;5040688;28;20187;-68
2021/12/21 06:55:16;;;;;;;14.50;8.63;;;2.40;99.90;;;;;;5039670;28;20536;-67
2021/12/21 06:57:43;;;;;;;22.00;11.63;;;2.30;99.90;;;;;;5040163;28;20165;-69
2021/12/21 07:00:13;;;;;;;20.70;9.60;;;2.40;99.90;;;;;;5042098;28;20161;-68
2021/12/21 07:02:39;;;;;;;13.40;8.73;;;2.30;99.90;;;;;;5044691;28;20157;-68
2021/12/21 07:05:06;;;;;;;14.70;9.20;;;2.20;99.90;;;;;;5036545;28;20252;-68
2021/12/21 07:07:32;;;;;;;14.50;9.70;;;2.30;99.90;;;;;;5034793;28;20188;-69
2021/12/21 07:10:04;;;;;;;16.67;9.20;;;2.30;99.90;;;;;;5034604;28;20161;-67
2021/12/21 07:20:37;;;;;;;19.10;9.53;;;2.30;99.90;;;;;;5034802;28;20193;-68
2021/12/21 07:23:03;;;;;;;20.70;9.83;;;2.40;99.90;;;;;;5034545;28;20187;-68
2021/12/21 07:25:30;;;;;;;19.03;8.67;;;2.40;99.90;;;;;;5034579;28;20622;-68
2021/12/21 07:27:56;;;;;;;16.30;9.37;;;2.30;99.90;;;;;;5034585;28;20168;-67
2021/12/21 07:30:22;;;;;;;16.27;8.70;;;2.40;99.90;;;;;;5034331;28;20165;-69
2021/12/21 07:32:48;;;;;;;15.07;8.80;;;2.40;99.90;;;;;;5034993;28;20612;-68
2021/12/21 07:35:14;;;;;;;17.47;9.80;;;2.50;99.90;;;;;;5034296;28;20243;-67
2021/12/21 07:37:40;;;;;;;15.10;8.63;;;2.60;99.90;;;;;;5034597;28;20196;-67
2021/12/21 07:40:07;;;;;;;15.03;9.03;;;2.60;99.90;;;;;;5035049;28;20166;-66
2021/12/21 07:42:33;;;;;;;17.60;8.50;;;2.60;99.90;;;;;;5034470;28;20223;-68
2021/12/21 07:44:59;;;;;;;15.77;9.10;;;2.40;99.90;;;;;;5036252;28;20193;-68
2021/12/21 07:47:25;;;;;;;14.33;8.83;;;2.50;99.90;;;;;;5047248;28;20188;-67
2021/12/21 07:49:51;;;;;;;16.53;9.10;;;2.60;99.90;;;;;;5035563;28;20303;-66
2021/12/21 07:52:18;;;;;;;16.70;8.97;;;2.70;99.90;;;;;;5033032;28;20483;-68
2021/12/21 07:54:44;;;;;;;17.87;8.57;;;2.50;99.90;;;;;;5033976;28;20204;-68
2021/12/21 07:57:09;;;;;;;15.00;9.07;;;2.60;99.90;;;;;;5033571;28;20162;-66
2021/12/21 07:59:37;;;;;;;16.43;8.97;;;2.60;99.90;;;;;;5033594;28;20196;-67
2021/12/21 08:02:03;;;;;;;11.20;8.23;;;2.60;99.90;;;;;;5033729;28;20243;-67
2021/12/21 08:04:29;;;;;;;18.23;9.53;;;2.60;99.90;;;;;;5033707;28;20594;-68
2021/12/21 08:06:59;;;;;;;17.87;9.53;;;2.60;99.90;;;;;;5033154;28;20235;-68
2021/12/21 08:09:29;;;;;;;17.40;10.00;;;2.60;99.90;;;;;;5033466;28;20592;-68
2021/12/21 08:12:15;;;;;;;20.33;9.27;;;2.50;99.90;;;;;;5033636;28;20167;-67
2021/12/21 08:14:49;;;;;;;12.80;8.33;;;2.60;99.90;;;;;;5033475;28;20199;-68
2021/12/21 08:17:16;;;;;;;14.47;8.43;;;2.60;99.90;;;;;;5032786;28;20208;-67
2021/12/21 08:19:42;;;;;;;16.27;8.80;;;2.60;99.90;;;;;;5033439;28;20660;-69
2021/12/21 08:22:08;;;;;;;19.07;9.90;;;2.60;99.90;;;;;;5033868;28;20167;-69
2021/12/21 08:24:33;;;;;;;21.37;11.30;;;2.60;99.90;;;;;;5034791;28;20207;-68
2021/12/21 08:27:03;;;;;;;18.30;10.37;;;2.50;99.90;;;;;;5034590;28;20164;-67
2021/12/21 08:29:29;;;;;;;16.50;9.63;;;2.70;99.90;;;;;;5033266;28;20205;-66
2021/12/21 08:31:54;;;;;;;16.40;10.23;;;2.60;99.90;;;;;;5032839;28;20238;-70
2021/12/21 08:34:21;;;;;;;17.90;11.03;;;2.50;99.90;;;;;;5033771;28;20229;-68
2021/12/21 08:36:47;;;;;;;25.03;12.37;;;2.50;99.90;;;;;;5033228;28;20636;-67
2021/12/21 08:39:15;;;;;;;24.53;13.77;;;2.50;99.90;;;;;;5032950;28;20161;-67
2021/12/21 08:41:43;;;;;;;31.47;15.03;;;2.50;99.90;;;;;;5033708;28;20185;-67
2021/12/21 08:44:10;;;;;;;29.33;14.93;;;2.50;99.90;;;;;;5033952;28;20195;-67
2021/12/21 08:46:38;;;;;;;24.97;13.53;;;2.50;99.90;;;;;;5034110;28;20168;-69
2021/12/21 08:49:04;;;;;;;30.30;15.37;;;2.40;99.90;;;;;;5033632;28;20214;-68
2021/12/21 08:51:30;;;;;;;29.53;16.03;;;2.50;99.90;;;;;;5033190;28;20169;-69
2021/12/21 08:53:56;;;;;;;27.57;15.00;;;2.50;99.90;;;;;;5033066;28;20487;-67
2021/12/21 08:56:21;;;;;;;27.30;14.20;;;2.50;99.90;;;;;;5033100;28;20325;-67
2021/12/21 08:58:47;;;;;;;27.67;14.33;;;2.50;99.90;;;;;;5033840;28;20175;-68
2021/12/21 09:01:12;;;;;;;33.10;15.80;;;2.60;99.90;;;;;;5033680;28;20175;-68
2021/12/21 09:03:38;;;;;;;32.63;15.70;;;2.60;99.90;;;;;;5035849;28;20176;-67
2021/12/21 09:06:04;;;;;;;28.50;14.90;;;2.60;99.90;;;;;;5037184;28;20176;-68
2021/12/21 09:08:30;;;;;;;26.97;14.73;;;2.50;99.90;;;;;;5037344;28;20570;-67
2021/12/21 09:11:02;;;;;;;23.03;14.83;;;2.50;99.90;;;;;;5037448;28;20172;-68
2021/12/21 09:13:28;;;;;;;31.10;15.20;;;2.60;99.90;;;;;;5039830;28;20200;-68
2021/12/21 09:15:54;;;;;;;29.67;14.83;;;2.50;99.90;;;;;;5037553;28;20688;-66
2021/12/21 09:18:20;;;;;;;26.77;14.90;;;2.50;99.90;;;;;;5036975;28;20243;-68
2021/12/21 09:20:45;;;;;;;23.27;13.37;;;2.70;99.90;;;;;;5036396;28;20354;-66
2021/12/21 09:23:12;;;;;;;25.13;13.30;;;2.60;99.90;;;;;;5036865;28;20248;-67
2021/12/21 09:25:38;;;;;;;28.73;14.60;;;2.50;99.90;;;;;;5036289;28;20152;-68
2021/12/21 09:28:04;;;;;;;20.30;12.03;;;2.50;99.90;;;;;;5036804;28;20233;-67
2021/12/21 09:30:29;;;;;;;24.73;12.33;;;2.50;99.90;;;;;;5036777;28;20165;-67
2021/12/21 09:32:56;;;;;;;22.97;13.30;;;2.50;99.90;;;;;;5036540;28;20187;-65
2021/12/21 09:35:23;;;;;;;24.73;14.80;;;2.50;99.90;;;;;;5036231;28;20197;-65
2021/12/21 09:37:49;;;;;;;19.30;11.67;;;2.70;99.90;;;;;;5036552;28;20169;-68
2021/12/21 09:40:19;;;;;;;23.13;12.17;;;2.60;99.90;;;;;;5036564;28;20495;-68
2021/12/21 09:42:44;;;;;;;21.10;11.40;;;2.60;99.90;;;;;;5036458;28;20605;-66
2021/12/21 09:45:11;;;;;;;19.57;11.60;;;2.50;99.90;;;;;;5036931;28;20252;-68
2021/12/21 09:47:36;;;;;;;25.30;12.80;;;2.60;99.90;;;;;;5036000;28;20169;-67
2021/12/21 09:50:05;;;;;;;20.07;12.07;;;2.60;99.90;;;;;;5036272;28;20177;-69
2021/12/21 09:52:32;;;;;;;25.20;11.00;;;2.70;99.90;;;;;;5036015;28;20608;-66
2021/12/21 09:55:00;;;;;;;21.73;11.60;;;2.70;99.90;;;;;;5036494;28;20202;-67
2021/12/21 09:57:26;;;;;;;22.27;11.90;;;2.80;99.90;;;;;;5036472;28;20181;-68
2021/12/21 09:59:53;;;;;;;23.47;13.63;;;2.80;99.90;;;;;;5036069;28;20175;-67
2021/12/21 10:02:21;;;;;;;22.20;11.50;;;2.70;99.90;;;;;;5036252;28;20212;-67
2021/12/21 10:04:57;;;;;;;18.07;10.77;;;2.70;99.90;;;;;;5034717;28;20177;-66
2021/12/21 10:07:25;;;;;;;16.80;9.60;;;2.70;99.90;;;;;;5036555;28;20192;-65
2021/12/21 10:10:01;;;;;;;13.10;9.67;;;2.70;99.90;;;;;;5036102;28;20173;-65
2021/12/21 10:12:28;;;;;;;22.77;10.30;;;2.70;99.90;;;;;;5034830;28;20189;-66
2021/12/21 10:15:07;;;;;;;16.47;9.30;;;2.80;99.90;;;;;;5034738;28;20287;-65
2021/12/21 10:17:35;;;;;;;20.73;9.83;;;2.70;99.90;;;;;;5036058;28;20165;-65
2021/12/21 10:20:08;;;;;;;18.40;9.60;;;2.80;99.90;;;;;;5035560;28;20200;-66
2021/12/21 10:22:35;;;;;;;16.13;8.77;;;2.80;99.90;;;;;;5035267;28;20158;-73
2021/12/21 10:25:02;;;;;;;14.47;8.33;;;3.60;99.90;;;;;;5035785;28;20170;-75
2021/12/21 10:27:27;;;;;;;15.27;8.67;;;4.50;99.90;;;;;;5035395;28;20352;-74
2021/12/21 10:29:58;;;;;;;11.77;5.77;;;4.30;99.90;;;;;;5036646;28;20240;-76
2021/12/21 10:32:27;;;;;;;13.43;6.97;;;4.30;99.90;;;;;;5036172;28;20275;-69
2021/12/21 10:34:55;;;;;;;10.97;6.27;;;4.50;99.90;;;;;;5036276;28;20345;-68
2021/12/21 10:37:27;;;;;;;15.20;6.37;;;3.70;99.90;;;;;;5036258;28;20554;-67
2021/12/21 10:40:07;;;;;;;11.50;7.53;;;3.30;99.90;;;;;;5038667;28;20605;-69
2021/12/21 10:42:47;;;;;;;12.33;6.97;;;3.20;99.90;;;;;;5034619;28;20173;-68
2021/12/21 10:45:13;;;;;;;9.83;5.23;;;3.10;99.90;;;;;;5035674;28;20696;-67
2021/12/21 10:47:38;;;;;;;15.30;7.43;;;3.10;99.90;;;;;;5035520;28;20324;-69
2021/12/21 10:50:06;;;;;;;13.00;6.80;;;3.10;99.90;;;;;;5035498;28;20358;-69
2021/12/21 10:52:31;;;;;;;11.30;7.00;;;3.10;99.90;;;;;;5034646;28;20780;-70
2021/12/21 10:54:57;;;;;;;13.83;8.87;;;3.10;99.90;;;;;;5035002;28;20294;-70
2021/12/21 10:57:33;;;;;;;19.27;8.00;;;3.10;99.90;;;;;;5035000;28;20192;-69
2021/12/21 11:00:14;;;;;;;16.17;8.77;;;3.10;99.90;;;;;;5037748;28;20163;-69
2021/12/21 11:02:41;;;;;;;14.27;8.53;;;3.20;99.90;;;;;;5035215;28;20168;-71
2021/12/21 11:05:10;;;;;;;18.33;8.20;;;3.30;99.90;;;;;;5035519;28;20168;-69
2021/12/21 11:10:15;;;;;;;15.53;7.60;;;3.20;99.90;;;;;;5035210;28;20164;-70
2021/12/21 11:12:51;;;;;;;12.57;7.33;;;3.10;99.90;;;;;;5034719;28;20173;-69
2021/12/21 11:15:28;;;;;;;12.03;7.20;;;3.00;99.90;;;;;;5039749;28;20289;-68
2021/12/21 11:17:55;;;;;;;12.63;7.13;;;3.10;99.90;;;;;;5045789;28;20170;-69
2021/12/21 11:20:20;;;;;;;12.50;7.30;;;3.10;99.90;;;;;;5041256;28;20215;-68
2021/12/21 11:22:46;;;;;;;15.83;7.37;;;3.20;99.90;;;;;;5037890;28;20172;-68
2021/12/21 11:25:13;;;;;;;10.80;6.70;;;3.20;99.90;;;;;;5035190;28;20235;-69
2021/12/21 11:27:42;;;;;;;11.07;7.27;;;3.20;99.90;;;;;;5034285;28;20602;-67
2021/12/21 11:30:27;;;;;;;12.90;7.37;;;3.20;99.90;;;;;;5034943;28;20186;-66
2021/12/21 11:32:56;;;;;;;11.27;6.80;;;3.30;99.90;;;;;;5034883;28;20192;-66
2021/12/21 11:37:54;;;;;;;11.23;6.97;;;3.10;99.90;;;;;;5034593;28;20179;-68
2021/12/21 11:40:23;;;;;;;12.47;6.73;;;3.10;99.90;;;;;;5034706;28;20173;-66
2021/12/21 11:42:52;;;;;;;12.70;6.60;;;3.10;99.90;;;;;;5033972;28;20167;-67
2021/12/21 11:45:37;;;;;;;12.40;6.93;;;3.10;99.90;;;;;;5034657;28;20165;-68
2021/12/21 11:48:09;;;;;;;10.73;6.60;;;3.10;99.90;;;;;;5034579;28;20164;-66
2021/12/21 11:50:37;;;;;;;10.20;6.27;;;3.10;99.90;;;;;;5034368;28;20180;-64
2021/12/21 11:53:14;;;;;;;9.90;6.40;;;3.00;99.90;;;;;;5036278;28;20642;-66
2021/12/21 11:55:43;;;;;;;12.73;6.37;;;3.00;99.90;;;;;;5034497;28;20193;-66
2021/12/21 11:58:24;;;;;;;17.13;7.73;;;3.00;99.90;;;;;;5034231;28;20169;-65
2021/12/21 12:00:53;;;;;;;8.80;6.23;;;3.10;99.90;;;;;;5034189;28;20175;-65
2021/12/21 12:03:24;;;;;;;10.17;6.40;;;3.10;99.90;;;;;;5036963;28;20250;-65
2021/12/21 12:05:56;;;;;;;14.00;7.07;;;3.10;99.90;;;;;;5038008;28;20165;-65
2021/12/21 12:08:25;;;;;;;12.17;6.43;;;3.20;99.90;;;;;;5033615;28;20525;-64
2021/12/21 12:10:54;;;;;;;10.17;6.07;;;3.20;99.90;;;;;;5034263;28;20176;-65
2021/12/21 12:13:33;;;;;;;10.33;5.87;;;3.30;99.90;;;;;;5034059;28;20273;-66
2021/12/21 12:16:05;;;;;;;12.43;6.60;;;3.30;99.90;;;;;;5033539;28;20199;-65
2021/12/21 12:18:34;;;;;;;7.90;5.67;;;3.20;99.90;;;;;;5033707;28;20247;-67
2021/12/21 12:21:15;;;;;;;10.57;5.63;;;3.30;99.90;;;;;;5034019;28;20196;-65
2021/12/21 12:23:51;;;;;;;7.27;4.83;;;3.30;99.90;;;;;;5033787;28;20157;-65
2021/12/21 12:26:24;;;;;;;12.93;6.00;;;3.20;99.90;;;;;;5033540;28;20619;-65
2021/12/21 12:28:51;;;;;;;8.20;5.87;;;3.20;99.90;;;;;;5033638;28;20223;-67
2021/12/21 12:31:34;;;;;;;12.53;6.17;;;3.20;99.90;;;;;;5033688;28;20157;-67
2021/12/21 12:34:01;;;;;;;10.67;5.30;;;3.30;99.90;;;;;;5033488;28;20264;-65
2021/12/21 12:36:50;;;;;;;10.87;5.43;;;3.30;99.90;;;;;;5033568;28;20205;-66
2021/12/21 12:39:29;;;;;;;8.27;5.60;;;3.40;99.90;;;;;;5034293;28;20222;-65
2021/12/21 12:42:05;;;;;;;9.83;6.27;;;3.30;99.90;;;;;;5034230;28;20226;-65
2021/12/21 12:44:32;;;;;;;13.00;7.37;;;3.40;99.90;;;;;;5036162;28;20173;-66
2021/12/21 12:47:02;;;;;;;11.67;6.43;;;3.40;99.90;;;;;;5034212;28;20158;-65
2021/12/21 12:49:29;;;;;;;12.30;6.07;;;3.30;99.90;;;;;;5032652;28;20204;-66
2021/12/21 12:52:28;;;;;;;10.23;5.67;;;3.40;99.90;;;;;;5033441;28;20624;-65
2021/12/21 12:54:58;;;;;;;13.03;6.00;;;3.20;99.90;;;;;;5032541;28;20331;-66
2021/12/21 12:57:32;;;;;;;9.80;5.53;;;3.20;99.90;;;;;;5032991;28;20537;-67
2021/12/21 13:00:17;;;;;;;12.77;5.83;;;3.10;99.90;;;;;;5033565;28;20204;-66
2021/12/21 13:02:53;;;;;;;11.37;5.90;;;3.20;99.90;;;;;;5033327;28;20167;-66
2021/12/21 13:05:19;;;;;;;13.03;6.97;;;3.20;99.90;;;;;;5033595;28;20196;-67
2021/12/21 13:07:45;;;;;;;9.40;6.10;;;3.10;99.90;;;;;;5033777;28;20161;-65
2021/12/21 13:10:12;;;;;;;12.77;5.67;;;3.30;99.90;;;;;;5032390;28;20169;-65
2021/12/21 13:12:38;;;;;;;11.23;5.73;;;3.20;99.90;;;;;;5032863;28;20240;-66
2021/12/21 13:15:07;;;;;;;10.43;6.17;;;3.20;99.90;;;;;;5033028;28;20680;-67
2021/12/21 13:17:33;;;;;;;10.47;7.00;;;3.20;99.90;;;;;;5033371;28;20208;-67
2021/12/21 13:19:59;;;;;;;8.77;6.27;;;3.10;99.90;;;;;;5032466;28;20173;-66
2021/12/21 13:22:27;;;;;;;13.20;6.67;;;3.10;99.90;;;;;;5033255;28;20487;-66
2021/12/21 13:24:54;;;;;;;13.60;7.43;;;3.10;99.90;;;;;;5032249;28;20206;-66
2021/12/21 13:27:23;;;;;;;14.10;8.10;;;3.10;99.90;;;;;;5033258;28;20176;-67
2021/12/21 13:29:49;;;;;;;11.83;6.07;;;3.00;99.90;;;;;;5034944;28;20226;-67
2021/12/21 13:32:18;;;;;;;11.50;6.73;;;3.10;99.90;;;;;;5035140;28;20605;-68
2021/12/21 13:34:45;;;;;;;15.50;8.43;;;3.10;99.90;;;;;;5032735;28;20228;-68
2021/12/21 13:37:18;;;;;;;10.37;6.67;;;3.00;99.90;;;;;;5033071;28;20196;-67
2021/12/21 13:39:49;;;;;;;13.70;6.50;;;3.10;99.90;;;;;;5032753;28;20161;-67
2021/12/21 13:42:19;;;;;;;12.17;6.90;;;3.10;99.90;;;;;;5032828;28;20172;-68
2021/12/21 13:44:57;;;;;;;14.53;6.77;;;3.20;99.90;;;;;;5031853;28;20574;-68
2021/12/21 13:47:24;;;;;;;13.60;7.00;;;3.10;99.90;;;;;;5032662;28;20254;-67
2021/12/21 13:50:04;;;;;;;12.13;6.57;;;3.20;99.90;;;;;;5035451;28;20240;-66
2021/12/21 13:52:58;;;;;;;12.23;7.37;;;3.10;99.90;;;;;;5036509;28;20172;-66
2021/12/21 13:55:30;;;;;;;13.00;7.43;;;3.10;99.90;;;;;;5033658;28;20277;-66
2021/12/21 13:58:00;;;;;;;13.47;6.87;;;3.00;99.90;;;;;;5036607;28;20173;-66
2021/12/21 14:00:29;;;;;;;15.10;7.60;;;3.10;99.90;;;;;;5036612;28;20617;-68
2021/12/21 14:03:14;;;;;;;15.63;7.47;;;3.10;99.90;;;;;;5036878;28;20225;-68
2021/12/21 14:05:45;;;;;;;10.43;7.03;;;3.10;99.90;;;;;;5036221;28;20163;-65
2021/12/21 14:08:12;;;;;;;12.47;6.50;;;3.10;99.90;;;;;;5036203;28;20157;-65
2021/12/21 14:10:56;;;;;;;11.97;6.10;;;3.10;99.90;;;;;;5036022;28;20168;-66